Latest Weather Observations for Mount Lofty

IDS60901

Issued at 9:15 pm CST Tuesday 30 September 2014 (issued every 10 minutes, with the page automatically refreshed every 10 minutes)

About weather observations | Map of Adelaide area stations | Latest observations for Adelaide area | Other Formats
Station Details ID: 023842 Name: MOUNT LOFTY Lat: -34.98 Lon: 138.71 Height: 685.0 m
Data from the previous 72 hours. | See also: Recent months at Mount Lofty
Date/Time
CST
Tmp

°C
App
Tmp
°C
Dew
Point
°C
Rel
Hum
%
Delta-T

°C
Wind Press
QNH
hPa
Press
MSL
hPa
Rain
since
9 am
mm
Dir
 
Spd
km/h
Gust
km/h
Spd
kts
Gust
kts
30/09:00pm 7.4 3.1 5.2 86 1.0 WSW 17 35 9 19 - - 0.0
30/08:30pm 8.0 4.6 6.0 87 0.9 W 13 28 7 15 - - -
30/08:00pm 8.1 4.5 6.7 91 0.7 W 15 26 8 14 - - -
30/07:30pm 8.1 4.5 6.6 90 0.7 W 15 30 8 16 - - -
30/07:00pm 8.1 4.4 6.4 89 0.8 W 15 30 8 16 - - -
30/06:30pm 8.3 3.8 6.3 87 1.0 W 19 39 10 21 - - -
30/06:00pm 8.5 4.4 6.0 84 1.2 W 17 30 9 16 - - -
30/05:30pm 9.5 4.6 4.1 69 2.5 W 19 37 10 20 - - -
30/05:00pm 10.1 5.6 6.1 76 1.9 W 19 33 10 18 - - -
30/04:30pm 10.6 6.2 6.4 75 2.0 W 19 35 10 19 - - -
30/04:00pm 10.5 5.3 5.3 70 2.5 W 22 39 12 21 - - -
30/03:30pm 10.7 5.3 6.5 75 2.1 W 24 41 13 22 - - -
30/03:00pm 9.8 5.9 9.3 97 0.3 W 20 35 11 19 - - -
30/02:30pm 8.8 3.9 8.4 97 0.2 W 24 44 13 24 - - -
30/02:00pm 8.9 4.0 8.3 96 0.3 W 24 48 13 26 - - -
30/01:30pm 9.8 5.0 9.0 95 0.4 W 24 39 13 21 - - -
30/01:00pm 12.1 7.1 9.7 85 1.3 W 26 52 14 28 - - -
30/12:37pm 12.2 6.8 9.4 83 1.5 W 28 54 15 29 - - -
30/12:30pm 11.9 6.8 9.3 84 1.4 W 26 46 14 25 - - -
30/12:00pm 11.4 5.2 9.5 88 1.0 W 32 69 17 37 - - -
30/11:30am 12.4 6.6 9.4 82 1.6 W 30 50 16 27 - - 0.0
30/11:00am 11.9 6.3 8.9 82 1.6 WNW 28 50 15 27 - - 0.0
30/10:42am 12.2 6.3 8.9 80 1.7 W 30 52 16 28 - - 0.0
30/09:30am 12.1 6.7 9.5 84 1.4 WNW 28 50 15 27 - - 0.0
30/09:05am 12.1 6.5 8.8 80 1.7 WNW 28 46 15 25 - - 0.0
30/09:00am 11.9 6.6 8.6 80 1.7 WNW 26 41 14 22 - - 0.2
30/08:38am 11.7 6.1 8.6 81 1.6 W 28 54 15 29 - - 0.2
30/08:30am 11.5 6.0 9.1 85 1.2 WNW 28 43 15 23 - - 0.2
30/08:10am 10.7 5.0 8.3 85 1.2 WNW 28 52 15 28 - - 0.2
30/08:00am 10.1 4.8 8.4 89 0.9 WNW 26 46 14 25 - - 0.2
30/07:30am 10.5 4.2 7.6 82 1.4 WNW 30 52 16 28 - - 0.2
30/07:04am 10.3 3.3 7.0 80 1.6 WNW 33 59 18 32 - - 0.2
30/07:00am 9.8 3.1 7.4 85 1.2 WNW 32 48 17 26 - - 0.2
30/06:31am 9.4 3.3 6.8 84 1.3 WNW 28 52 15 28 - - 0.2
30/06:30am 9.5 3.8 6.9 84 1.3 WNW 26 44 14 24 - - 0.2
30/06:18am 9.2 3.1 6.5 83 1.3 WNW 28 50 15 27 - - 0.2
30/06:00am 9.3 3.2 6.4 82 1.4 WNW 28 43 15 23 - - 0.2
30/05:50am 9.6 3.5 6.7 82 1.4 WNW 28 48 15 26 - - 0.2
30/05:30am 9.5 4.2 6.8 83 1.3 WNW 24 41 13 22 - - 0.0
30/05:00am 9.6 4.0 7.0 84 1.3 WNW 26 43 14 23 - - 0.0
30/04:30am 8.9 4.9 8.9 100 0.0 WNW 20 35 11 19 - - 0.0
30/04:00am 9.4 5.5 9.4 100 0.0 NW 20 32 11 17 - - 0.0
30/03:30am 9.7 5.9 9.7 100 0.0 WNW 20 32 11 17 - - 0.0
30/03:00am 9.6 5.9 9.6 100 0.0 NW 19 35 10 19 - - 0.0
30/02:30am 9.7 6.1 9.7 100 0.0 WNW 19 32 10 17 - - 0.0
30/02:00am 9.4 6.1 9.4 100 0.0 WNW 17 24 9 13 - - 0.0
30/01:30am 9.4 6.4 9.4 100 0.0 WNW 15 20 8 11 - - 0.0
30/01:00am 9.3 7.1 9.3 100 0.0 W 11 19 6 10 - - 0.0
30/12:30am 9.3 6.7 9.3 100 0.0 W 13 19 7 10 - - 0.0
30/12:00am 9.2 7.3 9.2 100 0.0 W 9 19 5 10 - - 0.0
 
Date/Time
CST
Tmp

°C
App
Tmp
°C
Dew
Point
°C
Rel
Hum
%
Delta-T

°C
Wind Press
QNH
hPa
Press
MSL
hPa
Rain
since
9 am
mm
Dir
 
Spd
km/h
Gust
km/h
Spd
kts
Gust
kts
29/11:30pm 9.2 7.0 9.2 100 0.0 W 11 19 6 10 - - 0.0
29/11:00pm 9.3 7.5 9.3 100 0.0 W 9 17 5 9 - - 0.0
29/10:30pm 9.3 7.1 9.3 100 0.0 W 11 19 6 10 - - 0.0
29/10:00pm 9.4 6.8 9.4 100 0.0 W 13 22 7 12 - - 0.0
29/09:30pm 9.6 7.1 9.6 100 0.0 W 13 19 7 10 - - 0.0
29/09:00pm 9.9 7.4 9.8 99 0.1 W 13 20 7 11 - - 0.0
29/08:30pm 10.4 7.8 9.5 94 0.5 W 13 24 7 13 - - 0.0
29/08:00pm 10.8 8.0 8.7 87 1.1 W 13 24 7 13 - - 0.0
29/07:30pm 11.4 7.7 7.9 79 1.8 W 17 30 9 16 - - 0.0
29/07:00pm 11.6 8.5 7.3 75 2.2 W 13 24 7 13 - - 0.0
29/06:30pm 11.9 8.1 7.4 74 2.3 WNW 17 28 9 15 - - 0.0
29/06:00pm 12.6 9.2 7.5 71 2.6 WNW 15 26 8 14 - - 0.0
29/05:30pm 13.4 10.0 7.6 68 3.0 WNW 15 28 8 15 - - 0.0
29/05:00pm 13.7 9.5 7.5 66 3.2 WNW 19 32 10 17 - - 0.0
29/04:30pm 13.9 9.8 7.9 67 3.1 WNW 19 32 10 17 - - 0.0
29/04:00pm 14.0 10.5 8.6 70 2.8 W 17 30 9 16 - - 0.0
29/03:30pm 14.3 10.6 7.8 65 3.3 WNW 17 35 9 19 - - 0.0
29/03:00pm 14.7 10.5 7.5 62 3.7 WNW 19 33 10 18 - - 0.0
29/02:30pm 14.2 9.9 7.7 65 3.3 WNW 20 35 11 19 - - 0.0
29/02:00pm 13.9 9.6 7.7 66 3.2 WNW 20 35 11 19 - - 0.0
29/01:30pm 14.8 10.8 8.1 64 3.5 WNW 19 35 10 19 - - 0.0
29/01:00pm 14.2 9.8 7.5 64 3.4 WNW 20 35 11 19 - - 0.0
29/12:30pm 13.5 9.5 8.4 71 2.6 WNW 19 41 10 22 - - 0.0
29/12:00pm 13.4 8.8 8.3 71 2.6 WNW 22 39 12 21 - - 0.0
29/11:30am 12.9 8.7 8.2 73 2.4 WNW 20 33 11 18 - - 0.0
29/11:00am 12.0 8.2 9.0 82 1.6 WNW 19 32 10 17 - - 0.0
29/10:30am 12.0 9.4 12.0 100 0.0 WNW 17 30 9 16 - - 0.0
29/10:00am 10.0 6.3 10.0 100 0.0 WNW 20 33 11 18 - - 0.0
29/09:30am 9.8 6.6 9.8 100 0.0 WNW 17 28 9 15 - - 0.0
29/09:00am 9.7 6.8 9.7 100 0.0 WNW 15 28 8 15 - - 0.0
29/08:30am 9.4 7.2 9.4 100 0.0 WNW 11 19 6 10 - - 0.0
29/08:00am 9.3 7.1 9.3 100 0.0 WNW 11 22 6 12 - - 0.0
29/07:30am 9.3 6.7 9.3 100 0.0 W 13 28 7 15 - - 0.0
29/07:00am 9.2 6.6 9.2 100 0.0 W 13 26 7 14 - - 0.0
29/06:30am 9.2 6.2 9.2 100 0.0 W 15 28 8 15 - - 0.0
29/06:00am 9.2 7.0 9.2 100 0.0 W 11 22 6 12 - - 0.0
29/05:30am 9.3 6.3 9.3 100 0.0 W 15 26 8 14 - - 0.0
29/05:00am 9.0 6.3 9.0 100 0.0 W 13 26 7 14 - - 0.0
29/04:30am 9.0 6.3 9.0 100 0.0 W 13 20 7 11 - - 0.0
29/04:00am 8.5 5.3 8.5 100 0.0 W 15 22 8 12 - - 0.0
29/03:30am 8.8 5.7 8.8 100 0.0 W 15 28 8 15 - - 0.0
29/03:00am 9.3 5.6 9.3 100 0.0 W 19 35 10 19 - - 0.0
29/02:30am 9.4 6.1 9.4 100 0.0 W 17 30 9 16 - - 0.0
29/02:00am 9.5 5.8 9.5 100 0.0 W 19 28 10 15 - - 0.0
29/01:30am 9.4 5.5 9.4 100 0.0 W 20 33 11 18 - - 0.0
29/01:00am 9.2 5.2 9.2 100 0.0 W 20 35 11 19 - - 0.0
29/12:30am 9.3 4.2 9.3 100 0.0 W 26 39 14 21 - - 0.0
29/12:00am 9.3 5.0 9.3 100 0.0 W 22 35 12 19 - - 0.0
 
Date/Time
CST
Tmp

°C
App
Tmp
°C
Dew
Point
°C
Rel
Hum
%
Delta-T

°C
Wind Press
QNH
hPa
Press
MSL
hPa
Rain
since
9 am
mm
Dir
 
Spd
km/h
Gust
km/h
Spd
kts
Gust
kts
28/11:30pm 9.2 4.5 9.2 100 0.0 W 24 37 13 20 - - 0.0
28/11:00pm 9.0 4.6 9.0 100 0.0 W 22 37 12 20 - - 0.0
28/10:30pm 9.1 5.1 9.1 100 0.0 W 20 48 11 26 - - 0.0
28/10:00pm 9.1 5.1 9.1 100 0.0 W 20 37 11 20 - - 0.0
28/09:30pm 9.2 5.4 8.9 98 0.2 W 19 30 10 16 - - 0.0
28/09:00pm 9.4 5.7 9.4 100 0.0 W 19 35 10 19 - - 0.0
28/08:30pm 9.6 5.4 9.6 100 0.0 W 22 35 12 19 - - 0.0
28/08:00pm 9.7 5.5 9.7 100 0.0 W 22 35 12 19 - - 0.0
28/07:30pm 9.7 6.1 9.7 100 0.0 W 19 33 10 18 - - 0.0
28/07:00pm 10.0 6.8 10.0 100 0.0 W 17 26 9 14 - - 0.0
28/06:30pm 10.2 7.3 9.7 97 0.3 W 15 26 8 14 - - 0.0
28/06:00pm 11.0 7.7 7.9 81 1.6 W 15 30 8 16 - - 0.0
28/05:30pm 11.7 8.4 9.4 86 1.2 W 17 39 9 21 - - 0.0
28/05:00pm 12.7 9.5 8.4 75 2.2 W 15 30 8 16 - - 0.0
28/04:30pm 14.4 11.4 7.7 64 3.4 WSW 13 26 7 14 - - 0.0
28/04:00pm 15.5 13.1 8.7 64 3.6 WSW 11 24 6 13 - - 0.0
28/03:30pm 17.5 15.2 8.9 57 4.6 W 11 24 6 13 - - 0.0
28/03:00pm 20.6 16.3 6.9 41 7.2 W 19 39 10 21 - - 0.0
28/02:31pm 22.3 15.6 3.4 29 9.4 WNW 28 54 15 29 - - 0.0
28/02:30pm 22.3 15.9 3.4 29 9.4 WNW 26 54 14 29 - - 0.0
28/02:01pm 21.9 15.3 4.0 31 9.0 WNW 28 48 15 26 - - 0.0
28/02:00pm 22.0 15.8 4.1 31 9.0 WNW 26 48 14 26 - - 0.0
28/01:32pm 22.7 16.2 4.7 31 9.2 WNW 28 50 15 27 - - 0.0
28/01:30pm 22.8 16.8 5.3 32 9.1 WNW 26 44 14 24 - - 0.0
28/01:00pm 22.3 15.0 4.4 31 9.1 WNW 32 52 17 28 - - 0.0
28/12:30pm 21.4 14.0 4.0 32 8.7 NW 32 52 17 28 - - 0.0
28/12:00pm 20.3 13.7 4.4 35 8.0 NW 28 50 15 27 - - 0.0
28/11:30am 20.0 12.5 3.7 34 8.0 NW 32 65 17 35 - - 0.0
28/11:00am 19.9 13.0 4.4 36 7.7 WNW 30 54 16 29 - - 0.0
28/10:30am 21.0 14.2 3.2 31 8.8 WNW 28 59 15 32 - - 0.0
28/10:00am 21.1 13.0 3.3 31 8.8 NW 35 69 19 37 - - 0.0
28/09:30am 19.8 12.6 3.1 33 8.1 NW 30 57 16 31 - - 0.0
28/09:00am 19.7 12.5 3.0 33 8.1 NW 30 56 16 30 - - 0.0
28/08:43am 19.3 12.0 2.6 33 8.0 NW 30 52 16 28 - - 0.0
28/08:30am 18.7 12.6 2.9 35 7.6 NW 24 43 13 23 - - 0.0
28/08:00am 18.2 10.9 2.5 35 7.5 NNW 30 48 16 26 - - 0.0
28/07:30am 17.9 10.6 2.2 35 7.4 NNW 30 52 16 28 - - 0.0
28/07:00am 18.0 10.5 1.5 33 7.7 NNW 30 54 16 29 - - 0.0
28/06:30am 18.1 10.1 1.6 33 7.7 N 33 65 18 35 - - 0.0
28/06:00am 18.0 10.2 1.5 33 7.7 NNW 32 61 17 33 - - 0.0
28/05:30am 18.4 10.6 1.9 33 7.8 NNW 32 65 17 35 - - 0.0
28/05:00am 18.2 10.3 2.1 34 7.6 NNW 33 67 18 36 - - 0.0
28/04:30am 18.4 10.8 2.7 35 7.5 NNW 32 61 17 33 - - 0.0
28/04:00am 18.3 10.6 3.4 37 7.2 NNW 33 63 18 34 - - 0.0
28/03:30am 18.4 10.7 3.5 37 7.2 NNW 33 67 18 36 - - 0.0
28/03:00am 18.8 11.3 3.4 36 7.5 NNW 32 59 17 32 - - 0.0
28/02:30am 18.7 11.1 3.7 37 7.3 NNW 33 63 18 34 - - 0.0
28/02:00am 18.8 11.3 3.4 36 7.5 NNW 32 61 17 33 - - 0.0
28/01:30am 19.2 12.1 3.4 35 7.7 NNW 30 57 16 31 - - 0.0
28/01:00am 19.0 11.5 3.2 35 7.7 NNW 32 57 17 31 - - 0.0
28/12:30am 19.3 11.8 3.5 35 7.7 NNW 32 54 17 29 - - 0.0
28/12:05am 19.5 12.7 3.2 34 7.9 NNW 28 54 15 29 - - 0.0
28/12:00am 19.4 12.6 3.2 34 7.9 NNW 28 44 15 24 - - 0.0
 
Date/Time
CST
Tmp

°C
App
Tmp
°C
Dew
Point
°C
Rel
Hum
%
Delta-T

°C
Wind Press
QNH
hPa
Press
MSL
hPa
Rain
since
9 am
mm
Dir
 
Spd
km/h
Gust
km/h
Spd
kts
Gust
kts
27/11:42pm 19.7 13.0 3.4 34 8.0 NNW 28 57 15 31 - - 0.0
27/11:30pm 19.3 13.7 3.5 35 7.7 NNW 22 41 12 22 - - 0.0
27/11:00pm 19.5 13.5 3.2 34 7.9 NNW 24 44 13 24 - - 0.0
27/10:30pm 19.7 13.7 3.4 34 8.0 NNW 24 41 13 22 - - 0.0
27/10:00pm 20.3 14.7 3.5 33 8.3 NNW 22 44 12 24 - - 0.0
27/09:30pm 21.0 15.0 3.2 31 8.8 NNW 24 43 13 23 - - 0.0

Latest Capital City Observations: Canberra | Sydney | Melbourne | Brisbane | Adelaide | Perth | Hobart | Darwin

Other Formats:

Comma delimited format used in spreadsheet applications
http://www.bom.gov.au/fwo/IDS60901/IDS60901.95678.axf

JavaScript Object Notation format (JSON) in row-major order
http://www.bom.gov.au/fwo/IDS60901/IDS60901.95678.json